Observation data for Floydada on 11/17/2019      Previous  Date       Current Mesonet Observations  Soil Data  Daily Summary Page  Observations in Plain Language
KFLS 170600Z 21006KT 07/03 A2996 RMK A01 T00690030  RH  077%=      5-min Rain = 0
KFLS 170605Z 22005KT 08/03 A2996 RMK A01 T00780032  RH  074%=      5-min Rain = 0
KFLS 170610Z 22006KT 08/03 A2996 RMK A01 T00810032  RH  072%=      5-min Rain = 0
KFLS 170615Z 22005KT 08/03 A2996 RMK A01 T00810032  RH  072%=      5-min Rain = 0
KFLS 170620Z 23006KT 08/03 A2996 RMK A01 T00810032  RH  072%=      5-min Rain = 0
KFLS 170625Z 22006KT 08/03 A2996 RMK A01 T00800032  RH  073%=      5-min Rain = 0
KFLS 170630Z 22006KT 08/03 A2996 RMK A01 T00800032  RH  073%=      5-min Rain = 0
KFLS 170635Z 23006KT 08/03 A2996 RMK A01 T00800032  RH  073%=      5-min Rain = 0
KFLS 170640Z 23007KT 08/03 A2996 RMK A01 T00790032  RH  073%=      5-min Rain = 0
KFLS 170645Z 22006KT 08/03 A2996 RMK A01 T00800033  RH  073%=      5-min Rain = 0
KFLS 170650Z 22007KT 08/03 A2997 RMK A01 T00810033  RH  073%=      5-min Rain = 0
KFLS 170655Z 22006KT 08/03 A2997 RMK A01 T00810033  RH  073%=      5-min Rain = 0
KFLS 170700Z 22007KT 08/03 A2997 RMK A01 T00800033  RH  073%=      5-min Rain = 0
KFLS 170705Z 23006KT 08/03 A2997 RMK A01 T00780033  RH  074%=      5-min Rain = 0
KFLS 170710Z 24006KT 08/03 A2998 RMK A01 T00760032  RH  075%=      5-min Rain = 0
KFLS 170715Z 22006KT 07/03 A2997 RMK A01 T00720031  RH  076%=      5-min Rain = 0
KFLS 170720Z 22005KT 07/03 A2997 RMK A01 T00680029  RH  077%=      5-min Rain = 0
KFLS 170725Z 22005KT 07/03 A2997 RMK A01 T00710030  RH  076%=      5-min Rain = 0
KFLS 170730Z 22006KT 07/03 A2997 RMK A01 T00710031  RH  077%=      5-min Rain = 0
KFLS 170735Z 24005KT 07/03 A2997 RMK A01 T00670026  RH  076%=      5-min Rain = 0
KFLS 170740Z 24004KT 05/02 A2997 RMK A01 T00510015  RH  079%=      5-min Rain = 0
KFLS 170745Z 23004KT 04/01 A2996 RMK A01 T00440014  RH  082%=      5-min Rain = 0
KFLS 170750Z 23004KT 04/02 A2996 RMK A01 T00420015  RH  083%=      5-min Rain = 0
KFLS 170755Z 24004KT 04/01 A2996 RMK A01 T00380011  RH  084%=      5-min Rain = 0
KFLS 170800Z 25003KT 04/01 A2996 RMK A01 T00360013  RH  086%=      5-min Rain = 0
KFLS 170805Z 29005KT 04/01 A2996 RMK A01 T00360014  RH  086%=      5-min Rain = 0
KFLS 170810Z 32005KT 03/01 A2996 RMK A01 T00330011  RH  086%=      5-min Rain = 0
KFLS 170815Z 30004KT 03/01 A2996 RMK A01 T00310010  RH  087%=      5-min Rain = 0
KFLS 170820Z 29004KT 03/01 A2996 RMK A01 T00280007  RH  087%=      5-min Rain = 0
KFLS 170825Z 30006KT 03/01 A2997 RMK A01 T00260007  RH  088%=      5-min Rain = 0
KFLS 170830Z 31007KT 03/01 A2997 RMK A01 T00270008  RH  088%=      5-min Rain = 0
KFLS 170835Z 30007KT 03/01 A2997 RMK A01 T00250006  RH  088%=      5-min Rain = 0
KFLS 170840Z 31006KT 03/01 A2997 RMK A01 T00280011  RH  089%=      5-min Rain = 0
KFLS 170845Z 31007KT 03/01 A2997 RMK A01 T00320012  RH  088%=      5-min Rain = 0
KFLS 170850Z 31008KT 03/01 A2997 RMK A01 T00340011  RH  086%=      5-min Rain = 0
KFLS 170855Z 32008KT 04/01 A2996 RMK A01 T00370012  RH  085%=      5-min Rain = 0
KFLS 170900Z 32009KT 04/01 A2997 RMK A01 T00350008  RH  084%=      5-min Rain = 0
KFLS 170905Z 32010KT 03/01 A2997 RMK A01 T00340009  RH  085%=      5-min Rain = 0
KFLS 170910Z 33010KT 04/01 A2998 RMK A01 T00360011  RH  085%=      5-min Rain = 0
KFLS 170915Z 34009KT 04/01 A2998 RMK A01 T00420012  RH  082%=      5-min Rain = 0
KFLS 170920Z 35010KT 05/02 A2998 RMK A01 T00540017  RH  078%=      5-min Rain = 0
KFLS 170925Z 36010KT 07/02 A2998 RMK A01 T00670018  RH  071%=      5-min Rain = 0
KFLS 170930Z 36011KT 07/02 A2998 RMK A01 T00720017  RH  069%=      5-min Rain = 0
KFLS 170935Z 00012G19KT 08/02 A2998 RMK A01 T00760017  RH  067%=      5-min Rain = 0
KFLS 170940Z 00013G18KT 08/02 A2999 RMK A01 T00780017  RH  066%=      5-min Rain = 0
KFLS 170945Z 36013G18KT 08/02 A30 RMK A01 T00780015  RH  065%=      5-min Rain = 0
KFLS 170950Z 00013G19KT 08/01 A30 RMK A01 T00770014  RH  065%=      5-min Rain = 0
KFLS 170955Z 01016G23KT 08/01 A30 RMK A01 T00780011  RH  063%=      5-min Rain = 0
KFLS 171000Z 01018G24KT 09/00 A3001 RMK A01 T00850003  RH  057%=      5-min Rain = 0
KFLS 171005Z 01017G25KT 08/00 A3001 RMK A01 T008400-0  RH  056%=      5-min Rain = 0
KFLS 171010Z 01018G23KT 09/M00 A3001 RMK A01 T00861003  RH  054%=      5-min Rain = 0
KFLS 171015Z 01019KT 09/M00 A3001 RMK A01 T00861004  RH  054%=      5-min Rain = 0
KFLS 171020Z 01016KT 08/M01 A3002 RMK A01 T00841005  RH  054%=      5-min Rain = 0
KFLS 171025Z 00017G25KT 08/M01 A3003 RMK A01 T00841006  RH  054%=      5-min Rain = 0
KFLS 171030Z 00015G20KT 08/M01 A3003 RMK A01 T00831007  RH  054%=      5-min Rain = 0
KFLS 171035Z 01016KT 08/M01 A3003 RMK A01 T00831007  RH  053%=      5-min Rain = 0
KFLS 171040Z 01017G23KT 09/M01 A3003 RMK A01 T00851009  RH  052%=      5-min Rain = 0
KFLS 171045Z 01017KT 09/M01 A3003 RMK A01 T00851009  RH  052%=      5-min Rain = 0
KFLS 171050Z 01016G21KT 08/M01 A3003 RMK A01 T00831009  RH  053%=      5-min Rain = 0
KFLS 171055Z 01017G22KT 08/M01 A3003 RMK A01 T00821009  RH  053%=      5-min Rain = 0
KFLS 171100Z 01017G23KT 08/M01 A3004 RMK A01 T00821009  RH  053%=      5-min Rain = 0
KFLS 171105Z 01017KT 08/M01 A3004 RMK A01 T00811009  RH  054%=      5-min Rain = 0
KFLS 171110Z 01016KT 08/M01 A3004 RMK A01 T00801009  RH  054%=      5-min Rain = 0
KFLS 171115Z 01015KT 08/M01 A3004 RMK A01 T00791008  RH  055%=      5-min Rain = 0
KFLS 171120Z 01016G22KT 08/M01 A3004 RMK A01 T00791008  RH  055%=      5-min Rain = 0
KFLS 171125Z 01016G21KT 08/M01 A3005 RMK A01 T00781007  RH  055%=      5-min Rain = 0
KFLS 171130Z 01016G21KT 08/M01 A3005 RMK A01 T00771007  RH  056%=      5-min Rain = 0
KFLS 171135Z 01017G22KT 08/M01 A3005 RMK A01 T00761007  RH  056%=      5-min Rain = 0
KFLS 171140Z 01016KT 08/M01 A3005 RMK A01 T00761007  RH  056%=      5-min Rain = 0
KFLS 171145Z 01016G22KT 08/M01 A3006 RMK A01 T00751006  RH  057%=      5-min Rain = 0
KFLS 171150Z 01016G21KT 08/M01 A3006 RMK A01 T00751006  RH  057%=      5-min Rain = 0
KFLS 171155Z 01017G22KT 08/M01 A3007 RMK A01 T00751005  RH  058%=      5-min Rain = 0
KFLS 171200Z 01018G23KT 08/M01 A3007 RMK A01 T00751005  RH  058%=      5-min Rain = 0
KFLS 171205Z 01018G24KT 07/M01 A3007 RMK A01 T00731005  RH  058%=      5-min Rain = 0
KFLS 171210Z 01018KT 07/M01 A3007 RMK A01 T00721005  RH  059%=      5-min Rain = 0
KFLS 171215Z 01017G22KT 07/M00 A3008 RMK A01 T00711004  RH  060%=      5-min Rain = 0
KFLS 171220Z 01018G26KT 07/M00 A3008 RMK A01 T00701004  RH  060%=      5-min Rain = 0
KFLS 171225Z 01017G24KT 07/M00 A3009 RMK A01 T00701003  RH  060%=      5-min Rain = 0
KFLS 171230Z 01017G25KT 07/M00 A3009 RMK A01 T00681002  RH  061%=      5-min Rain = 0
KFLS 171235Z 01018G24KT 07/M00 A3009 RMK A01 T00691001  RH  061%=      5-min Rain = 0
KFLS 171240Z 01017G23KT 07/M00 A301 RMK A01 T00681001  RH  062%=      5-min Rain = 0
KFLS 171245Z 01017G22KT 07/00 A301 RMK A01 T006700-0  RH  063%=      5-min Rain = 0
KFLS 171250Z 01017G22KT 07/00 A301 RMK A01 T00660000  RH  064%=      5-min Rain = 0
KFLS 171255Z 01016KT 07/00 A3011 RMK A01 T00660001  RH  064%=      5-min Rain = 0
KFLS 171300Z 01017G24KT 07/00 A3011 RMK A01 T00650002  RH  065%=      5-min Rain = 0
KFLS 171305Z 01017KT 07/00 A3012 RMK A01 T00650002  RH  065%=      5-min Rain = 0
KFLS 171310Z 01016G22KT 06/00 A3012 RMK A01 T00640003  RH  065%=      5-min Rain = 0
KFLS 171315Z 01016G21KT 06/00 A3012 RMK A01 T00640003  RH  066%=      5-min Rain = 0
KFLS 171320Z 01015G20KT 06/00 A3012 RMK A01 T00630004  RH  066%=      5-min Rain = 0
KFLS 171325Z 01016G23KT 06/01 A3013 RMK A01 T00630005  RH  067%=      5-min Rain = 0
KFLS 171330Z 01017G22KT 06/01 A3013 RMK A01 T00640005  RH  067%=      5-min Rain = 0
KFLS 171335Z 02016G22KT 07/01 A3013 RMK A01 T00650006  RH  067%=      5-min Rain = 0
KFLS 171340Z 01016KT 07/01 A3014 RMK A01 T00650006  RH  067%=      5-min Rain = 0
KFLS 171345Z 02014KT 07/01 A3014 RMK A01 T00650007  RH  067%=      5-min Rain = 0
KFLS 171350Z 02015KT 07/01 A3014 RMK A01 T00650007  RH  067%=      5-min Rain = 0
KFLS 171355Z 01015KT 07/01 A3014 RMK A01 T00660007  RH  067%=      5-min Rain = 0
KFLS 171400Z 01014KT 07/01 A3014 RMK A01 T00660008  RH  067%=      5-min Rain = 0
KFLS 171405Z 01015G22KT 07/01 A3015 RMK A01 T00680008  RH  067%=      5-min Rain = 0
KFLS 171410Z 01016G21KT 07/01 A3015 RMK A01 T00700009  RH  066%=      5-min Rain = 0
KFLS 171415Z 01015G21KT 07/01 A3015 RMK A01 T00710009  RH  065%=      5-min Rain = 0
KFLS 171420Z 01015G22KT 07/01 A3015 RMK A01 T00730009  RH  065%=      5-min Rain = 0
KFLS 171425Z 01016G22KT 07/01 A3015 RMK A01 T00740009  RH  064%=      5-min Rain = 0
KFLS 171430Z 01017G22KT 08/01 A3015 RMK A01 T00750009  RH  063%=      5-min Rain = 0
KFLS 171435Z 01017G23KT 08/01 A3016 RMK A01 T00770008  RH  063%=      5-min Rain = 0
KFLS 171440Z 01016G21KT 08/01 A3016 RMK A01 T00790009  RH  062%=      5-min Rain = 0
KFLS 171445Z 01017G22KT 08/01 A3016 RMK A01 T00800008  RH  061%=      5-min Rain = 0
KFLS 171450Z 02017G23KT 08/01 A3016 RMK A01 T00820009  RH  061%=      5-min Rain = 0
KFLS 171455Z 01020G26KT 08/01 A3016 RMK A01 T00830008  RH  060%=      5-min Rain = 0
KFLS 171500Z 02018KT 09/01 A3016 RMK A01 T00850008  RH  059%=      5-min Rain = 0
KFLS 171505Z 01018G24KT 09/01 A3016 RMK A01 T00870009  RH  059%=      5-min Rain = 0
KFLS 171510Z 01020G25KT 09/01 A3016 RMK A01 T00870008  RH  058%=      5-min Rain = 0
KFLS 171515Z 02019G25KT 09/01 A3016 RMK A01 T00890008  RH  058%=      5-min Rain = 0
KFLS 171520Z 02019G25KT 09/01 A3016 RMK A01 T00910009  RH  057%=      5-min Rain = 0
KFLS 171525Z 02016G21KT 09/01 A3017 RMK A01 T00940010  RH  056%=      5-min Rain = 0
KFLS 171530Z 02017G23KT 10/01 A3017 RMK A01 T00970010  RH  055%=      5-min Rain = 0
KFLS 171535Z 02020G25KT 10/01 A3017 RMK A01 T00960009  RH  055%=      5-min Rain = 0
KFLS 171540Z 02020G25KT 10/01 A3017 RMK A01 T00990009  RH  054%=      5-min Rain = 0
KFLS 171545Z 02019G26KT 10/01 A3017 RMK A01 T01010009  RH  054%=      5-min Rain = 0
KFLS 171550Z 02018G23KT 10/01 A3017 RMK A01 T01040010  RH  053%=      5-min Rain = 0
KFLS 171555Z 02018G23KT 11/01 A3017 RMK A01 T01060010  RH  052%=      5-min Rain = 0
KFLS 171600Z 02019G25KT 11/01 A3016 RMK A01 T01050009  RH  052%=      5-min Rain = 0
KFLS 171605Z 01019KT 11/01 A3017 RMK A01 T01060009  RH  052%=      5-min Rain = 0
KFLS 171610Z 02017G23KT 11/01 A3017 RMK A01 T01100010  RH  051%=      5-min Rain = 0
KFLS 171615Z 02016G22KT 11/01 A3017 RMK A01 T01110010  RH  050%=      5-min Rain = 0
KFLS 171620Z 02015KT 11/01 A3017 RMK A01 T01120010  RH  050%=      5-min Rain = 0
KFLS 171625Z 02015G20KT 12/01 A3017 RMK A01 T01160010  RH  049%=      5-min Rain = 0
KFLS 171630Z 02014G20KT 11/01 A3017 RMK A01 T01140010  RH  049%=      5-min Rain = 0
KFLS 171635Z 01015G20KT 11/01 A3017 RMK A01 T01140010  RH  049%=      5-min Rain = 0
KFLS 171640Z 02015KT 12/01 A3017 RMK A01 T01210011  RH  047%=      5-min Rain = 0
KFLS 171645Z 01015KT 12/01 A3017 RMK A01 T01190010  RH  048%=      5-min Rain = 0
KFLS 171650Z 01016KT 12/01 A3017 RMK A01 T01190010  RH  048%=      5-min Rain = 0
KFLS 171655Z 02015KT 12/01 A3017 RMK A01 T01220010  RH  047%=      5-min Rain = 0
KFLS 171700Z 00014KT 12/01 A3017 RMK A01 T01230010  RH  046%=      5-min Rain = 0
KFLS 171705Z 01012G18KT 13/01 A3016 RMK A01 T01260011  RH  046%=      5-min Rain = 0
KFLS 171710Z 01013G18KT 13/01 A3016 RMK A01 T01260010  RH  046%=      5-min Rain = 0
KFLS 171715Z 36014KT 12/01 A3016 RMK A01 T01230010  RH  046%=      5-min Rain = 0
KFLS 171720Z 36013KT 13/01 A3016 RMK A01 T01270010  RH  045%=      5-min Rain = 0
KFLS 171725Z 01015KT 13/01 A3016 RMK A01 T01280010  RH  045%=      5-min Rain = 0
KFLS 171730Z 01014G19KT 13/01 A3016 RMK A01 T01310009  RH  044%=      5-min Rain = 0
KFLS 171735Z 00014KT 13/01 A3016 RMK A01 T01310009  RH  044%=      5-min Rain = 0
KFLS 171740Z 00013G18KT 13/01 A3016 RMK A01 T01330010  RH  044%=      5-min Rain = 0
KFLS 171745Z 00013G18KT 14/01 A3015 RMK A01 T01350009  RH  043%=      5-min Rain = 0
KFLS 171750Z 01012G18KT 14/01 A3015 RMK A01 T01380010  RH  042%=      5-min Rain = 0
KFLS 171755Z 02011G18KT 14/01 A3015 RMK A01 T01430011  RH  041%=      5-min Rain = 0
KFLS 171800Z 00011G18KT 14/01 A3015 RMK A01 T01380010  RH  042%=      5-min Rain = 0
KFLS 171805Z 01012G19KT 14/01 A3015 RMK A01 T01400010  RH  042%=      5-min Rain = 0
KFLS 171810Z 36013KT 14/01 A3015 RMK A01 T01400009  RH  041%=      5-min Rain = 0
KFLS 171815Z 00011G16KT 14/01 A3015 RMK A01 T01440011  RH  041%=      5-min Rain = 0
KFLS 171820Z 36013G18KT 15/01 A3015 RMK A01 T01450010  RH  040%=      5-min Rain = 0
KFLS 171825Z 01013G18KT 15/01 A3015 RMK A01 T01470010  RH  040%=      5-min Rain = 0
KFLS 171830Z 00013G20KT 15/01 A3015 RMK A01 T01490011  RH  040%=      5-min Rain = 0
KFLS 171835Z 00014KT 15/01 A3014 RMK A01 T01490011  RH  039%=      5-min Rain = 0
KFLS 171840Z 00013G18KT 15/01 A3014 RMK A01 T01500011  RH  039%=      5-min Rain = 0
KFLS 171845Z 00015G22KT 15/01 A3014 RMK A01 T01480011  RH  040%=      5-min Rain = 0
KFLS 171850Z 01014KT 15/01 A3014 RMK A01 T01490011  RH  040%=      5-min Rain = 0
KFLS 171855Z 02014G20KT 15/01 A3014 RMK A01 T01520012  RH  039%=      5-min Rain = 0
KFLS 171900Z 02014G20KT 15/01 A3013 RMK A01 T01530012  RH  039%=      5-min Rain = 0
KFLS 171905Z 02013G18KT 16/01 A3013 RMK A01 T01550012  RH  038%=      5-min Rain = 0
KFLS 171910Z 01013G18KT 15/01 A3013 RMK A01 T01520012  RH  039%=      5-min Rain = 0
KFLS 171915Z 00014G20KT 15/01 A3013 RMK A01 T01540012  RH  039%=      5-min Rain = 0
KFLS 171920Z 01015G21KT 15/01 A3013 RMK A01 T01510011  RH  039%=      5-min Rain = 0
KFLS 171925Z 01013G20KT 15/01 A3012 RMK A01 T01540012  RH  039%=      5-min Rain = 0
KFLS 171930Z 00013G19KT 15/01 A3012 RMK A01 T01530012  RH  039%=      5-min Rain = 0
KFLS 171935Z 36015KT 15/01 A3012 RMK A01 T01510010  RH  039%=      5-min Rain = 0
KFLS 171940Z 01012G19KT 15/01 A3012 RMK A01 T01510011  RH  039%=      5-min Rain = 0
KFLS 171945Z 00012G18KT 16/01 A3012 RMK A01 T01560011  RH  038%=      5-min Rain = 0
KFLS 171950Z 00012G17KT 15/01 A3011 RMK A01 T01530010  RH  038%=      5-min Rain = 0
KFLS 171955Z 01009G17KT 16/01 A3011 RMK A01 T01550009  RH  038%=      5-min Rain = 0
KFLS 172000Z 01013KT 15/01 A3011 RMK A01 T01510008  RH  038%=      5-min Rain = 0
KFLS 172005Z 01010G15KT 15/01 A3011 RMK A01 T01540009  RH  038%=      5-min Rain = 0
KFLS 172010Z 01011G16KT 15/01 A301 RMK A01 T01530008  RH  038%=      5-min Rain = 0
KFLS 172015Z 01012KT 15/01 A301 RMK A01 T01530009  RH  038%=      5-min Rain = 0
KFLS 172020Z 00009KT 15/01 A301 RMK A01 T01540009  RH  038%=      5-min Rain = 0
KFLS 172025Z 34010G15KT 16/01 A301 RMK A01 T01560007  RH  037%=      5-min Rain = 0
KFLS 172030Z 02010KT 15/01 A3009 RMK A01 T01520008  RH  038%=      5-min Rain = 0
KFLS 172035Z 36010KT 16/01 A3009 RMK A01 T01570009  RH  037%=      5-min Rain = 0
KFLS 172040Z 01009G14KT 16/01 A3009 RMK A01 T01550006  RH  037%=      5-min Rain = 0
KFLS 172045Z 01010KT 16/00 A3009 RMK A01 T01550004  RH  036%=      5-min Rain = 0
KFLS 172050Z 01008KT 16/01 A3009 RMK A01 T01560006  RH  036%=      5-min Rain = 0
KFLS 172055Z 00007KT 16/01 A3009 RMK A01 T01590006  RH  036%=      5-min Rain = 0
KFLS 172100Z 34008KT 16/01 A3009 RMK A01 T01570005  RH  036%=      5-min Rain = 0
KFLS 172105Z 34005KT 16/01 A3008 RMK A01 T01560005  RH  036%=      5-min Rain = 0
KFLS 172110Z 00009KT 16/00 A3008 RMK A01 T01570003  RH  035%=      5-min Rain = 0
KFLS 172115Z 03007G12KT 16/00 A3008 RMK A01 T01560001  RH  035%=      5-min Rain = 0
KFLS 172120Z 02005KT 15/00 A3008 RMK A01 T01540000  RH  035%=      5-min Rain = 0
KFLS 172125Z 35005KT 15/00 A3008 RMK A01 T01530000  RH  036%=      5-min Rain = 0
KFLS 172130Z 36005KT 16/M00 A3008 RMK A01 T01561001  RH  035%=      5-min Rain = 0
KFLS 172135Z 35006KT 16/00 A3008 RMK A01 T015600-0  RH  035%=      5-min Rain = 0
KFLS 172140Z 33005KT 16/00 A3008 RMK A01 T015700-0  RH  035%=      5-min Rain = 0
KFLS 172145Z 34005G10KT 16/M00 A3008 RMK A01 T01551001  RH  035%=      5-min Rain = 0
KFLS 172150Z 01006KT 16/M00 A3008 RMK A01 T01591001  RH  034%=      5-min Rain = 0
KFLS 172155Z 00004KT 16/M00 A3009 RMK A01 T01561002  RH  034%=      5-min Rain = 0
KFLS 172200Z 35004KT 16/M00 A3008 RMK A01 T01561003  RH  034%=      5-min Rain = 0
KFLS 172205Z 34004KT 16/M00 A3008 RMK A01 T01551004  RH  034%=      5-min Rain = 0
KFLS 172210Z 32002KT 15/M01 A3008 RMK A01 T01531005  RH  034%=      5-min Rain = 0
KFLS 172215Z 02003KT 16/M01 A3008 RMK A01 T01561005  RH  034%=      5-min Rain = 0
KFLS 172220Z 04004KT 15/M01 A3008 RMK A01 T01541006  RH  034%=      5-min Rain = 0
KFLS 172225Z 02003KT 15/M01 A3008 RMK A01 T01521005  RH  034%=      5-min Rain = 0
KFLS 172230Z 34005KT 15/M00 A3009 RMK A01 T01521004  RH  035%=      5-min Rain = 0
KFLS 172235Z 34003KT 15/M01 A3009 RMK A01 T01501005  RH  035%=      5-min Rain = 0
KFLS 172240Z 00002KT 15/M01 A3009 RMK A01 T01501005  RH  035%=      5-min Rain = 0
KFLS 172245Z 00002KT 15/M01 A3009 RMK A01 T01501005  RH  035%=      5-min Rain = 0
KFLS 172250Z 35003KT 15/M01 A3009 RMK A01 T01481006  RH  035%=      5-min Rain = 0
KFLS 172255Z 01003KT 15/M01 A3009 RMK A01 T01481006  RH  035%=      5-min Rain = 0
KFLS 172300Z 01003KT 14/M01 A3009 RMK A01 T01441005  RH  036%=      5-min Rain = 0
KFLS 172305Z 35002KT 14/M00 A3009 RMK A01 T01441004  RH  037%=      5-min Rain = 0
KFLS 172310Z 33002KT 14/M01 A3009 RMK A01 T01441005  RH  036%=      5-min Rain = 0
KFLS 172315Z 34003KT 14/M01 A3009 RMK A01 T01371006  RH  038%=      5-min Rain = 0
KFLS 172320Z 34002KT 13/M01 A3009 RMK A01 T01341007  RH  038%=      5-min Rain = 0
KFLS 172325Z 34002KT 13/M01 A3009 RMK A01 T01331008  RH  038%=      5-min Rain = 0
KFLS 172330Z 35003KT 13/M01 A3009 RMK A01 T01301007  RH  039%=      5-min Rain = 0
KFLS 172335Z 00003KT 13/M01 A3009 RMK A01 T01281006  RH  040%=      5-min Rain = 0
KFLS 172340Z 00002KT 12/M01 A3009 RMK A01 T01231006  RH  041%=      5-min Rain = 0
KFLS 172345Z 01002KT 12/M01 A3009 RMK A01 T01211006  RH  042%=      5-min Rain = 0
KFLS 172350Z 01002KT 12/M01 A3009 RMK A01 T01181005  RH  043%=      5-min Rain = 0
KFLS 172355Z 01003KT 11/M01 A3009 RMK A01 T01131005  RH  045%=      5-min Rain = 0
KFLS 180000Z 01003KT 11/M00 A3009 RMK A01 T01101004  RH  045%=      5-min Rain = 0
KFLS 180005Z 00002KT 11/M00 A3009 RMK A01 T01101004  RH  046%=      5-min Rain = 0
KFLS 180010Z 00001KT 11/M00 A301 RMK A01 T01081004  RH  046%=      5-min Rain = 0
KFLS 180015Z 00001KT 10/M01 A301 RMK A01 T01001008  RH  048%=      5-min Rain = 0
KFLS 180020Z 34001KT 09/M01 A301 RMK A01 T00881010  RH  051%=      5-min Rain = 0
KFLS 180025Z 32000KT 08/M01 A301 RMK A01 T00841008  RH  053%=      5-min Rain = 0
KFLS 180030Z 32001KT 09/M01 A301 RMK A01 T00881007  RH  052%=      5-min Rain = 0
KFLS 180035Z 32001KT 08/M01 A301 RMK A01 T00841009  RH  052%=      5-min Rain = 0
KFLS 180040Z 32001KT 08/M01 A301 RMK A01 T00811007  RH  054%=      5-min Rain = 0
KFLS 180045Z 32000KT 08/M01 A301 RMK A01 T00841007  RH  054%=      5-min Rain = 0
KFLS 180050Z 32000KT 09/M01 A301 RMK A01 T00881008  RH  052%=      5-min Rain = 0
KFLS 180055Z 32001KT 08/M01 A301 RMK A01 T00821010  RH  053%=      5-min Rain = 0
KFLS 180100Z 32000KT 08/M01 A301 RMK A01 T00791007  RH  055%=      5-min Rain = 0
KFLS 180105Z 00000KT 08/M01 A301 RMK A01 T00811005  RH  055%=      5-min Rain = 0
KFLS 180110Z 32000KT 08/M00 A301 RMK A01 T00831004  RH  055%=      5-min Rain = 0
KFLS 180115Z 32000KT 08/M01 A301 RMK A01 T00791006  RH  056%=      5-min Rain = 0
KFLS 180120Z 32000KT 07/M01 A301 RMK A01 T00731011  RH  056%=      5-min Rain = 0
KFLS 180125Z 32000KT 06/M02 A301 RMK A01 T00551018  RH  060%=      5-min Rain = 0
KFLS 180130Z 32000KT 05/M02 A301 RMK A01 T00501017  RH  063%=      5-min Rain = 0
KFLS 180135Z 32000KT 05/M01 A301 RMK A01 T00511014  RH  063%=      5-min Rain = 0
KFLS 180140Z 32000KT 05/M02 A301 RMK A01 T00501016  RH  063%=      5-min Rain = 0
KFLS 180145Z 32001KT 04/M02 A301 RMK A01 T00431016  RH  066%=      5-min Rain = 0
KFLS 180150Z 32000KT 05/M01 A301 RMK A01 T00471013  RH  066%=      5-min Rain = 0
KFLS 180155Z 32000KT 05/M01 A3011 RMK A01 T00491012  RH  066%=      5-min Rain = 0
KFLS 180200Z 32000KT 06/M01 A3011 RMK A01 T00551011  RH  063%=      5-min Rain = 0
KFLS 180205Z 32000KT 05/M02 A3011 RMK A01 T00451015  RH  066%=      5-min Rain = 0
KFLS 180210Z 32000KT 04/M01 A3011 RMK A01 T00411012  RH  069%=      5-min Rain = 0
KFLS 180215Z 00000KT 04/M01 A3011 RMK A01 T00441008  RH  070%=      5-min Rain = 0
KFLS 180220Z 32000KT 05/M01 A3012 RMK A01 T00461009  RH  068%=      5-min Rain = 0
KFLS 180225Z 00000KT 04/M01 A3012 RMK A01 T00391014  RH  069%=      5-min Rain = 0
KFLS 180230Z 32000KT 04/M01 A3012 RMK A01 T00371011  RH  072%=      5-min Rain = 0
KFLS 180235Z 32000KT 04/M01 A3012 RMK A01 T00411008  RH  071%=      5-min Rain = 0
KFLS 180240Z 00000KT 05/M01 A3012 RMK A01 T00471008  RH  068%=      5-min Rain = 0
KFLS 180245Z 00000KT 05/M01 A3011 RMK A01 T00501007  RH  067%=      5-min Rain = 0
KFLS 180250Z 32000KT 05/M01 A3011 RMK A01 T00511008  RH  067%=      5-min Rain = 0
KFLS 180255Z 30001KT 05/M01 A3011 RMK A01 T00501010  RH  066%=      5-min Rain = 0
KFLS 180300Z 19002KT 05/M01 A3011 RMK A01 T00491008  RH  068%=      5-min Rain = 0
KFLS 180305Z 19003KT 05/M01 A3011 RMK A01 T00511006  RH  067%=      5-min Rain = 0
KFLS 180310Z 19003KT 05/M01 A3011 RMK A01 T00481008  RH  068%=      5-min Rain = 0
KFLS 180315Z 18003KT 04/M01 A3011 RMK A01 T00441007  RH  070%=      5-min Rain = 0
KFLS 180320Z 18003KT 05/M00 A3011 RMK A01 T00511004  RH  068%=      5-min Rain = 0
KFLS 180325Z 18004KT 06/M00 A301 RMK A01 T00551004  RH  067%=      5-min Rain = 0
KFLS 180330Z 18004KT 05/M01 A301 RMK A01 T00501006  RH  068%=      5-min Rain = 0
KFLS 180335Z 18004KT 05/M01 A301 RMK A01 T00471006  RH  069%=      5-min Rain = 0
KFLS 180340Z 18003KT 05/M01 A301 RMK A01 T00491006  RH  068%=      5-min Rain = 0
KFLS 180345Z 18003KT 04/M01 A301 RMK A01 T00441008  RH  070%=      5-min Rain = 0
KFLS 180350Z 18002KT 04/M01 A301 RMK A01 T00401008  RH  072%=      5-min Rain = 0
KFLS 180355Z 19002KT 03/M02 A301 RMK A01 T00311016  RH  072%=      5-min Rain = 0
KFLS 180400Z 19002KT 03/M02 A301 RMK A01 T00311016  RH  072%=      5-min Rain = 0
KFLS 180405Z 19002KT 03/M02 A301 RMK A01 T00321015  RH  072%=      5-min Rain = 0
KFLS 180410Z 18002KT 04/M01 A301 RMK A01 T00351014  RH  071%=      5-min Rain = 0
KFLS 180415Z 18002KT 04/M01 A301 RMK A01 T00381013  RH  070%=      5-min Rain = 0
KFLS 180420Z 18002KT 04/M01 A301 RMK A01 T00391014  RH  069%=      5-min Rain = 0
KFLS 180425Z 18003KT 04/M02 A301 RMK A01 T00371016  RH  069%=      5-min Rain = 0
KFLS 180430Z 18003KT 03/M02 A301 RMK A01 T00331017  RH  070%=      5-min Rain = 0
KFLS 180435Z 18003KT 03/M02 A301 RMK A01 T00271018  RH  073%=      5-min Rain = 0
KFLS 180440Z 19003KT 03/M02 A301 RMK A01 T00261017  RH  074%=      5-min Rain = 0
KFLS 180445Z 19003KT 03/M02 A3009 RMK A01 T00251017  RH  075%=      5-min Rain = 0
KFLS 180450Z 19003KT 03/M02 A3009 RMK A01 T00301015  RH  073%=      5-min Rain = 0
KFLS 180455Z 19003KT 03/M02 A3008 RMK A01 T00291016  RH  073%=      5-min Rain = 0
KFLS 180500Z 20004KT 03/M02 A3008 RMK A01 T00271016  RH  074%=      5-min Rain = 0
KFLS 180505Z 20004KT 02/M02 A3008 RMK A01 T00211019  RH  075%=      5-min Rain = 0
KFLS 180510Z 21004KT 02/M02 A3008 RMK A01 T00171020  RH  077%=      5-min Rain = 0
KFLS 180515Z 21005KT 02/M02 A3007 RMK A01 T00161019  RH  079%=      5-min Rain = 0
KFLS 180520Z 21005KT 02/M02 A3007 RMK A01 T00191017  RH  078%=      5-min Rain = 0
KFLS 180525Z 22005KT 02/M02 A3007 RMK A01 T00161019  RH  078%=      5-min Rain = 0
KFLS 180530Z 23006KT 01/M02 A3007 RMK A01 T00111022  RH  080%=      5-min Rain = 0
KFLS 180535Z 23006KT 01/M02 A3007 RMK A01 T00081023  RH  081%=      5-min Rain = 0
KFLS 180540Z 23006KT 01/M02 A3007 RMK A01 T00101020  RH  081%=      5-min Rain = 0
KFLS 180545Z 23006KT 02/M01 A3006 RMK A01 T00201011  RH  081%=      5-min Rain = 0
KFLS 180550Z 22006KT 03/M01 A3006 RMK A01 T00331007  RH  076%=      5-min Rain = 0
KFLS 180555Z 22006KT 04/M01 A3006 RMK A01 T00361007  RH  074%=      5-min Rain = 0

Page generated in 0.0091 seconds.